YPCC

Details ICAO YPCC (CCK)
Name Cocos Keeling Island
Region Australia
Timezone Unknown
Plans Departing 49
Arriving 67
Stats Elevation 10 ft / 3 m (AMSL)
Location -12.191300° 96.833700°
Runways 1
Magnetic Variation 1.839° W
Sunrise 2019-03-22 23:37:59 UTC / 2019-03-22 23:37:59 Local
Sunset 2019-03-23 11:43:26 UTC / 2019-03-23 11:43:26 Local
Advertisement - Login to hide

Runways

ID Width Length Bearing (true/mag) Surface Threshold Overrun Markings Lighting
15 148 ft / 45 m 8,039 ft / 2,450 m 149.38° / 151.22° ASPHALT 0 ft / 0 m 1,047 ft / 319 m APP EDGE THRESHOLD
33 148 ft / 45 m 8,039 ft / 2,450 m 329.38° / 331.22° ASPHALT 0 ft / 0 m 1,020 ft / 311 m APP EDGE THRESHOLD

Map

Weather


0- 5 10 15 20 25 30 35+ Temperature / °C

Clouds and Precipitation
Forecast for 2019-03-23 18:00 UTC. Updated an hour ago

Ground ~20,000 ft ~40,000 ft Winds

METAR

YPCC 231600Z AUTO 17012KT 9999 // NCD 26/22 Q1012

TAF

TAF AMD YPCC 231437Z 2315/2412 16010KT 9999 -SHRA SCT020 BKN040 INTER 2410/2412 3000 SHRA BKN010

Frequencies

Unicom 118.10 MHz CTAF
Warning: Do not use this data for real-world aviation or navigation. No guarantee of current accuracy is given.